Portada
METAR-TAF:

METAR-TAF

Aeropuertos :

Aeropuerto de Sept-Îles

Sept-Îles, Quebec, Canadá

latitud: 50-13N, longitud: 066-16W, altitud: 55 m

Observación

El informe se hizo hace 42 minutos, a las 01:00 UTC
Viento 11 kt del norte
Temperatura -18°C
Humedad 54%
Presión 1022 hPa
Visibilidad: 24.1 km
Cielo despejado

METAR: CYZV 130100Z 35011KT 15SM SKC M18/M25 A3018 RMK SLP226

Hora: 20:42 (01:42 UTC)

Pronóstico

El informe se hizo hace 2 horas y 4 minutos, a las 23:38 UTC
Pronóstico válido del 13 a las 00 UTC al 13 a las 24 UTC
Viento 5 kt del norte-noroeste
Visibilidad: 10 km
Cielo despejado
A partir de las 13 a las 1800 UTC
Viento 8 kt del oeste
Visibilidad: 10 km
Escasas nubes a una altura de 10000 ft
Nubes dispersas a una altura de 20000 ft

TAF: CYZV 122338Z 1300/1324 33005KT P6SM SKC FM131800 27008KT P6SM FEW100 SCT200 RMK NXT FCST BY 130600Z

Observaciones y pronósticos meteorológicos de más de 4000 aeropuertos (mensajes METAR y TAF).

Los puntos amarillos y rojos representan las estaciones disponibles.

Ponga el ratón en el punto deseado para ver el nombre de la estación.

Haga clic para ver las observaciones y los pronósticos meteorológicos.

Para cambiar el mapa : haga clic en los botones verdes con una cruz de color negro para hacer un zoom, en el botón verde con un guión para alejar o en las flechas verdes para mapas adyacentes.


METAR-TAF: